Time;durP1;ratioP1;P1;durP2;ratioP2;P2;SDS_P1;SDS_P2;PMS_P1;PMS_P2;Temp;Humidity;BMP_temperature;BMP_pressure;BME280_temperature;BME280_humidity;BME280_pressure;Samples;Min_cycle;Max_cycle;Signal;HPM_P1;HPM_P2
2022/09/20 00:01:04;;;;;;;2.10;1.05;;;;;;;10.50;nan;101023.75;4968548;28;20035;-67
2022/09/20 00:03:30;;;;;;;2.00;1.20;;;;;;;10.51;nan;101027.22;4967616;28;20034;-67
2022/09/20 00:06:03;;;;;;;1.50;1.00;;;;;;;10.52;nan;101031.56;4968163;28;20039;-67
2022/09/20 00:08:28;;;;;;;1.50;0.93;;;;;;;10.54;nan;101032.25;4968922;28;20637;-67
2022/09/20 00:11:05;;;;;;;1.33;1.00;;;;;;;10.58;nan;101033.63;4967208;28;20043;-67
2022/09/20 00:13:32;;;;;;;2.20;1.02;;;;;;;10.57;nan;101037.28;4967276;28;20046;-67
2022/09/20 00:15:58;;;;;;;1.58;1.00;;;;;;;10.60;nan;101036.97;4967321;28;20070;-67
2022/09/20 00:18:23;;;;;;;3.67;1.67;;;;;;;10.61;nan;101033.38;4968346;28;20034;-67
2022/09/20 00:20:49;;;;;;;3.25;1.10;;;;;;;10.64;nan;101030.44;4969076;28;20031;-67
2022/09/20 00:23:15;;;;;;;1.63;1.20;;;;;;;10.63;nan;101034.91;4964600;28;20114;-67
2022/09/20 00:25:41;;;;;;;1.95;1.10;;;;;;;10.63;nan;101032.25;4971948;28;20117;-67
2022/09/20 00:28:07;;;;;;;2.78;1.17;;;;;;;10.62;nan;101032.38;4971763;28;20085;-67
2022/09/20 00:30:33;;;;;;;1.85;1.17;;;;;;;10.59;nan;101043.25;4967134;28;20468;-67
2022/09/20 00:32:59;;;;;;;1.80;1.10;;;;;;;10.58;nan;101033.63;4970049;28;20063;-67
2022/09/20 00:35:24;;;;;;;2.08;1.05;;;;;;;10.54;nan;101032.25;4970542;28;20039;-67
2022/09/20 00:37:49;;;;;;;2.30;1.40;;;;;;;10.49;nan;101040.63;4972172;28;20041;-67
2022/09/20 00:40:19;;;;;;;2.40;1.30;;;;;;;10.44;nan;101034.03;4971324;28;20031;-67
2022/09/20 00:42:45;;;;;;;1.25;1.00;;;;;;;10.38;nan;101033.63;4972235;28;20113;-67
2022/09/20 00:45:10;;;;;;;1.27;1.00;;;;;;;10.34;nan;101047.25;4964001;28;20514;-67
2022/09/20 00:47:42;;;;;;;1.85;1.10;;;;;;;10.28;nan;101046.00;4967562;28;20118;-67
2022/09/20 00:50:25;;;;;;;2.63;1.30;;;;;;;10.23;nan;101044.72;4971296;28;20190;-67
2022/09/20 00:52:56;;;;;;;3.28;1.25;;;;;;;10.20;nan;101044.03;4969266;28;20042;-67
2022/09/20 00:55:23;;;;;;;1.92;1.10;;;;;;;10.19;nan;101041.50;4972063;28;20054;-67
2022/09/20 00:57:48;;;;;;;3.08;1.33;;;;;;;10.20;nan;101040.53;4970310;28;20355;-66
2022/09/20 01:00:14;;;;;;;1.88;1.20;;;;;;;10.21;nan;101039.56;4966834;28;20468;-67
2022/09/20 01:02:43;;;;;;;2.80;1.40;;;;;;;10.21;nan;101042.22;4971307;28;20480;-67
2022/09/20 01:05:11;;;;;;;3.05;1.80;;;;;;;10.20;nan;101032.59;4969072;28;20027;-67
2022/09/20 01:07:36;;;;;;;1.98;1.40;;;;;;;10.17;nan;101031.06;4971396;28;20042;-67
2022/09/20 01:10:02;;;;;;;2.83;1.52;;;;;;;10.10;nan;101037.88;4971748;28;20233;-66
2022/09/20 01:12:34;;;;;;;2.38;1.30;;;;;;;10.02;nan;101036.91;4969528;28;20117;-67
2022/09/20 01:15:01;;;;;;;2.15;1.15;;;;;;;9.91;nan;101035.19;4971753;28;20035;-67
2022/09/20 01:17:30;;;;;;;3.05;1.20;;;;;;;9.84;nan;101031.41;4966135;28;20038;-67
2022/09/20 01:20:31;;;;;;;2.25;1.33;;;;;;;9.78;nan;101038.06;4971393;28;20031;-67
2022/09/20 01:23:21;;;;;;;1.93;1.23;;;;;;;9.69;nan;101044.97;4970737;28;20097;-67
2022/09/20 01:26:06;;;;;;;1.30;1.02;;;;;;;9.60;nan;101045.78;4971509;28;20031;-67
2022/09/20 01:28:32;;;;;;;1.70;1.08;;;;;;;9.51;nan;101042.16;4965694;28;20384;-66
2022/09/20 01:31:39;;;;;;;1.58;1.13;;;;;;;9.46;nan;101049.63;4970153;28;20035;-66
2022/09/20 01:34:12;;;;;;;3.25;1.60;;;;;;;9.41;nan;101049.16;4968777;28;20089;-67
2022/09/20 01:36:48;;;;;;;1.88;1.30;;;;;;;9.40;nan;101054.59;4970576;28;20039;-67
2022/09/20 01:40:11;;;;;;;2.05;1.40;;;;;;;9.38;nan;101051.25;4971359;28;20512;-67
2022/09/20 01:42:47;;;;;;;2.10;1.30;;;;;;;9.37;nan;101042.50;4909971;29;20044;-67
2022/09/20 01:45:27;;;;;;;2.22;1.30;;;;;;;9.41;nan;101037.78;4907221;29;20043;-66
2022/09/20 01:48:13;;;;;;;2.72;1.50;;;;;;;9.44;nan;101043.66;4944839;28;20039;-67
2022/09/20 01:51:03;;;;;;;2.45;1.50;;;;;;;9.45;nan;101039.19;4970775;28;20039;-67
2022/09/20 01:54:09;;;;;;;3.20;1.70;;;;;;;9.42;nan;101037.66;4966873;28;20520;-67
2022/09/20 01:57:05;;;;;;;2.25;1.20;;;;;;;9.40;nan;101042.22;4970654;28;20039;-67
2022/09/20 01:59:45;;;;;;;2.63;1.30;;;;;;;9.38;nan;101043.31;4975322;28;20118;-67
2022/09/20 02:02:29;;;;;;;2.58;1.40;;;;;;;9.36;nan;101041.63;4970078;28;20222;-67
2022/09/20 02:05:17;;;;;;;3.35;1.52;;;;;;;9.35;nan;101039.97;4972022;28;20049;-67
2022/09/20 02:07:59;;;;;;;4.38;2.20;;;;;;;9.37;nan;101034.59;4963013;28;20050;-67
2022/09/20 02:10:33;;;;;;;2.65;1.50;;;;;;;9.36;nan;101033.72;4969331;28;20033;-67
2022/09/20 02:13:21;;;;;;;2.47;1.50;;;;;;;9.39;nan;101045.84;4969952;28;20047;-67
2022/09/20 02:16:10;;;;;;;3.83;2.05;;;;;;;9.43;nan;101033.22;4949549;28;20539;-67
2022/09/20 02:19:02;;;;;;;2.97;1.73;;;;;;;9.44;nan;101037.50;4971102;28;20061;-67
2022/09/20 02:21:40;;;;;;;1.60;1.25;;;;;;;9.42;nan;101039.47;4964325;28;20058;-67
2022/09/20 02:24:28;;;;;;;3.15;1.70;;;;;;;9.42;nan;101036.81;4970131;28;20039;-67
2022/09/20 02:27:21;;;;;;;3.72;2.10;;;;;;;9.43;nan;101038.50;4970433;28;20050;-67
2022/09/20 02:30:27;;;;;;;2.50;1.70;;;;;;;9.41;nan;101027.22;4976443;28;20045;-67
2022/09/20 02:33:25;;;;;;;2.65;1.73;;;;;;;9.35;nan;101032.06;4936613;28;20563;-67
2022/09/20 02:36:06;;;;;;;3.15;1.60;;;;;;;9.29;nan;101032.56;4967157;28;20046;-67
2022/09/20 02:38:53;;;;;;;3.00;1.50;;;;;;;9.18;nan;101035.31;4969264;28;20039;-67
2022/09/20 02:41:18;;;;;;;2.58;1.60;;;;;;;9.09;nan;101036.09;4962876;28;20043;-67
2022/09/20 02:44:17;;;;;;;2.47;1.30;;;;;;;9.01;nan;101031.47;4973814;28;20048;-67
2022/09/20 02:47:04;;;;;;;2.03;1.20;;;;;;;8.92;nan;101029.59;4969651;28;20286;-67
2022/09/20 02:49:50;;;;;;;3.15;2.00;;;;;;;8.83;nan;101033.81;4970257;28;20035;-67
2022/09/20 02:52:20;;;;;;;3.22;2.17;;;;;;;8.78;nan;101033.38;4968677;28;20042;-67
2022/09/20 02:55:12;;;;;;;2.63;1.70;;;;;;;8.74;nan;101034.59;4969488;28;20039;-66
2022/09/20 02:58:01;;;;;;;2.17;1.55;;;;;;;8.67;nan;101036.06;4963488;28;20392;-67
2022/09/20 03:00:52;;;;;;;2.53;1.70;;;;;;;8.60;nan;101037.53;4963541;28;20399;-67
2022/09/20 03:03:25;;;;;;;2.70;1.73;;;;;;;8.55;nan;101044.97;4951878;28;20034;-67
2022/09/20 03:06:06;;;;;;;2.05;1.42;;;;;;;8.48;nan;101050.75;4969024;28;20054;-67
2022/09/20 03:08:38;;;;;;;2.55;1.63;;;;;;;8.44;nan;101045.88;4969022;28;20065;-67
2022/09/20 03:11:22;;;;;;;3.28;2.00;;;;;;;8.42;nan;101051.25;4967728;28;20058;-67
2022/09/20 03:14:06;;;;;;;3.45;1.90;;;;;;;8.42;nan;101050.44;4967840;28;20086;-67
2022/09/20 03:16:50;;;;;;;4.50;2.63;;;;;;;8.39;nan;101048.00;4963854;28;20046;-67
2022/09/20 03:19:32;;;;;;;4.55;2.00;;;;;;;8.39;nan;101050.63;4968902;28;20038;-67
2022/09/20 03:22:21;;;;;;;4.30;1.90;;;;;;;8.38;nan;101060.34;4969398;28;20508;-67
2022/09/20 03:25:05;;;;;;;2.70;1.80;;;;;;;8.32;nan;101063.50;4964474;28;20456;-66
2022/09/20 03:27:43;;;;;;;3.05;1.52;;;;;;;8.25;nan;101062.31;4963624;28;20518;-67
2022/09/20 03:30:42;;;;;;;2.55;1.50;;;;;;;8.17;nan;101059.44;4964922;28;20138;-67
2022/09/20 03:33:45;;;;;;;2.88;1.48;;;;;;;8.07;nan;101054.91;4967854;28;20043;-67
2022/09/20 03:36:48;;;;;;;2.85;1.45;;;;;;;8.00;nan;101063.41;4967552;28;20042;-67
2022/09/20 03:39:15;;;;;;;3.85;1.90;;;;;;;7.93;nan;101065.69;4967673;28;20042;-66
2022/09/20 03:42:07;;;;;;;4.45;2.00;;;;;;;7.87;nan;101066.19;4967829;28;20043;-67
2022/09/20 03:45:18;;;;;;;3.60;2.08;;;;;;;7.80;nan;101062.38;4977194;28;20176;-66
2022/09/20 03:47:53;;;;;;;3.08;1.77;;;;;;;7.75;nan;101064.53;4908852;29;20232;-67
2022/09/20 03:50:31;;;;;;;2.08;1.40;;;;;;;7.68;nan;101064.16;4962913;28;20476;-67
2022/09/20 03:53:05;;;;;;;3.65;1.52;;;;;;;7.63;nan;101061.06;4968840;28;20093;-66
2022/09/20 03:56:03;;;;;;;3.38;1.70;;;;;;;7.57;nan;101065.00;4966663;28;20304;-66
2022/09/20 03:58:56;;;;;;;2.67;2.00;;;;;;;7.54;nan;101067.88;4973812;28;20042;-67
2022/09/20 04:01:56;;;;;;;2.67;1.80;;;;;;;7.50;nan;101063.78;4968749;28;20038;-66
2022/09/20 04:04:31;;;;;;;3.05;1.80;;;;;;;7.46;nan;101065.00;4973793;28;20117;-67
2022/09/20 04:07:23;;;;;;;4.38;1.70;;;;;;;7.42;nan;101068.81;4972654;28;20050;-66
2022/09/20 04:10:14;;;;;;;3.20;1.90;;;;;;;7.34;nan;101066.78;4975544;28;20034;-66
2022/09/20 04:13:05;;;;;;;2.67;1.80;;;;;;;7.30;nan;101064.50;4974876;28;20031;-67
2022/09/20 04:15:40;;;;;;;2.65;1.80;;;;;;;7.23;nan;101064.97;4975692;28;20488;-66
2022/09/20 04:18:08;;;;;;;1.63;1.30;;;;;;;7.20;nan;101059.09;4968692;28;20551;-66
2022/09/20 04:20:46;;;;;;;4.45;2.20;;;;;;;7.16;nan;101055.03;4975240;28;20063;-66
2022/09/20 04:23:49;;;;;;;3.40;1.83;;;;;;;7.16;nan;101065.53;4970885;28;20457;-66
2022/09/20 04:26:22;;;;;;;2.67;1.75;;;;;;;7.11;nan;101062.44;4974845;28;20125;-66
2022/09/20 04:28:53;;;;;;;3.33;1.70;;;;;;;7.06;nan;101067.22;4971155;28;20190;-66
2022/09/20 04:31:40;;;;;;;2.50;1.52;;;;;;;7.01;nan;101078.91;4975293;28;20344;-66
2022/09/20 04:34:17;;;;;;;2.33;1.55;;;;;;;6.95;nan;101076.72;4974572;28;20046;-66
2022/09/20 04:36:53;;;;;;;2.53;1.80;;;;;;;6.90;nan;101081.47;4974699;28;20035;-66
2022/09/20 04:39:31;;;;;;;2.75;1.90;;;;;;;6.87;nan;101080.88;4967264;28;20050;-66
2022/09/20 04:42:19;;;;;;;2.13;1.63;;;;;;;6.84;nan;101088.97;4974257;28;20070;-66
2022/09/20 04:45:09;;;;;;;2.28;1.58;;;;;;;6.79;nan;101090.19;4974822;28;20043;-66
2022/09/20 04:47:55;;;;;;;3.45;1.60;;;;;;;6.79;nan;101086.69;4974442;28;20030;-66
2022/09/20 04:50:29;;;;;;;3.28;1.90;;;;;;;6.83;nan;101089.94;4967315;28;20125;-66
2022/09/20 04:53:37;;;;;;;3.60;1.83;;;;;;;6.82;nan;101091.75;4968225;28;20098;-67
2022/09/20 04:56:39;;;;;;;5.75;2.88;;;;;;;6.84;nan;101092.47;4954514;28;20113;-66
2022/09/20 04:59:09;;;;;;;6.32;2.63;;;;;;;6.86;nan;101087.91;4961727;28;20030;-66
2022/09/20 05:01:57;;;;;;;4.75;2.20;;;;;;;6.86;nan;101087.91;4974952;28;20111;-66
2022/09/20 05:05:00;;;;;;;4.05;2.22;;;;;;;6.83;nan;101093.41;4971344;28;20037;-67
2022/09/20 05:07:47;;;;;;;4.50;2.28;;;;;;;6.78;nan;101098.16;4965577;28;20042;-66
2022/09/20 05:10:37;;;;;;;3.83;2.38;;;;;;;6.77;nan;101104.41;4969504;28;20566;-66
2022/09/20 05:13:14;;;;;;;3.28;2.10;;;;;;;6.76;nan;101102.69;4968548;28;20062;-67
2022/09/20 05:15:56;;;;;;;4.53;2.55;;;;;;;6.76;nan;101111.41;4971986;28;20038;-66
2022/09/20 05:19:04;;;;;;;2.47;2.10;;;;;;;6.77;nan;101118.38;4969207;28;20054;-66
2022/09/20 05:21:48;;;;;;;3.03;2.22;;;;;;;6.78;nan;101117.41;4965738;28;20033;-66
2022/09/20 05:24:37;;;;;;;3.08;1.92;;;;;;;6.79;nan;101120.88;4970285;28;20038;-66
2022/09/20 05:27:21;;;;;;;3.17;1.80;;;;;;;6.80;nan;101119.94;4971510;28;20477;-66
2022/09/20 05:29:50;;;;;;;4.18;2.90;;;;;;;6.86;nan;101116.00;4970938;28;20530;-66
2022/09/20 05:32:23;;;;;;;5.72;3.00;;;;;;;6.88;nan;101120.19;4963365;28;20031;-66
2022/09/20 05:35:01;;;;;;;4.55;2.53;;;;;;;6.90;nan;101122.72;4965166;28;20486;-66
2022/09/20 05:37:44;;;;;;;3.50;2.30;;;;;;;6.89;nan;101123.66;4964830;28;20027;-66
2022/09/20 05:40:17;;;;;;;3.53;2.42;;;;;;;6.90;nan;101123.53;4969120;28;20035;-67
2022/09/20 05:42:51;;;;;;;4.05;2.60;;;;;;;6.93;nan;101128.56;4971189;28;20039;-66
2022/09/20 05:45:54;;;;;;;3.53;2.40;;;;;;;6.94;nan;101130.25;4969417;28;20570;-66
2022/09/20 05:48:33;;;;;;;6.22;3.67;;;;;;;7.03;nan;101126.09;4968866;28;20037;-66
2022/09/20 05:50:59;;;;;;;4.28;3.10;;;;;;;7.09;nan;101135.34;4969151;28;20043;-67
2022/09/20 05:53:36;;;;;;;3.25;2.40;;;;;;;7.14;nan;101133.19;4969464;28;20514;-66
2022/09/20 05:56:12;;;;;;;3.42;2.70;;;;;;;7.16;nan;101131.28;4971513;28;20035;-66
2022/09/20 05:59:13;;;;;;;3.78;2.25;;;;;;;7.20;nan;101141.47;4969789;28;20151;-67
2022/09/20 06:01:45;;;;;;;3.70;2.40;;;;;;;7.26;nan;101136.72;4967725;28;20039;-66
2022/09/20 06:04:22;;;;;;;5.78;3.42;;;;;;;7.36;nan;101141.13;4970561;28;20030;-67
2022/09/20 06:07:12;;;;;;;5.65;3.53;;;;;;;7.53;nan;101145.16;4972011;28;20285;-67
2022/09/20 06:09:52;;;;;;;3.28;2.58;;;;;;;7.77;nan;101150.31;4970518;28;20030;-66
2022/09/20 06:12:34;;;;;;;5.40;2.58;;;;;;;8.16;nan;101158.72;4969090;28;20095;-67
2022/09/20 06:15:18;;;;;;;3.78;2.45;;;;;;;8.61;nan;101145.50;4970830;28;20041;-67
2022/09/20 06:18:01;;;;;;;3.35;2.40;;;;;;;9.30;nan;101144.28;4970721;28;20256;-67
2022/09/20 06:20:35;;;;;;;3.90;2.70;;;;;;;9.70;nan;101148.81;4973219;28;20035;-67
2022/09/20 06:23:03;;;;;;;4.60;3.03;;;;;;;9.86;nan;101151.81;4970394;28;20039;-67
2022/09/20 06:25:46;;;;;;;5.00;2.90;;;;;;;10.03;nan;101154.81;4971677;28;20535;-67
2022/09/20 06:28:38;;;;;;;4.65;2.88;;;;;;;10.05;nan;101145.78;4969665;28;20034;-67
2022/09/20 06:31:07;;;;;;;5.47;3.60;;;;;;;10.26;nan;101158.94;4977761;28;20609;-67
2022/09/20 06:33:48;;;;;;;4.60;3.00;;;;;;;10.72;nan;101159.34;4968990;28;20500;-67
2022/09/20 06:41:52;;;;;;;3.60;2.30;;;;;;;11.49;nan;101155.88;4971221;28;20061;-67
2022/09/20 06:44:17;;;;;;;3.10;2.05;;;;;;;11.61;nan;101164.50;4969610;28;20035;-67
2022/09/20 06:46:43;;;;;;;5.68;3.17;;;;;;;11.62;nan;101166.97;4970043;28;20065;-67
2022/09/20 06:49:08;;;;;;;3.85;2.60;;;;;;;11.69;nan;101168.06;4969699;28;20046;-67
2022/09/20 06:51:35;;;;;;;2.85;1.95;;;;;;;11.76;nan;101159.56;4966067;28;20508;-67
2022/09/20 06:54:02;;;;;;;5.80;2.42;;;;;;;11.81;nan;101167.91;4967842;28;20035;-67
2022/09/20 06:56:30;;;;;;;4.30;2.20;;;;;;;12.11;nan;101162.41;4969191;28;20034;-67
2022/09/20 06:58:55;;;;;;;4.50;2.05;;;;;;;12.53;nan;101169.00;4966699;28;20511;-67
2022/09/20 07:01:21;;;;;;;4.10;2.30;;;;;;;12.79;nan;101160.34;4964502;28;20039;-67
2022/09/20 07:03:47;;;;;;;5.82;2.53;;;;;;;12.69;nan;101161.22;4966214;28;20488;-67
2022/09/20 07:06:17;;;;;;;4.53;2.60;;;;;;;12.58;nan;101161.44;4966364;28;20037;-67
2022/09/20 07:08:42;;;;;;;5.70;2.50;;;;;;;12.63;nan;101163.66;4966208;28;20118;-67
2022/09/20 07:11:14;;;;;;;4.70;2.35;;;;;;;12.63;nan;101166.28;4968510;28;20114;-67
2022/09/20 07:13:42;;;;;;;2.72;1.70;;;;;;;13.06;nan;101172.69;4969461;28;20125;-67
2022/09/20 07:16:09;;;;;;;;;;;;;;;13.70;nan;101162.75;4967901;28;20078;-68
2022/09/20 07:18:34;;;;;;;5.45;2.13;;;;;;;14.31;nan;101171.56;4964229;28;19964;-68
2022/09/20 07:21:00;;;;;;;4.60;1.90;;;;;;;14.79;nan;101175.38;4969607;28;20121;-68
2022/09/20 07:23:27;;;;;;;3.10;1.38;;;;;;;15.26;nan;101177.44;4968717;28;20400;-68
2022/09/20 07:25:53;;;;;;;3.33;1.60;;;;;;;15.80;nan;101177.75;4967963;28;20053;-68
2022/09/20 07:28:19;;;;;;;5.68;2.17;;;;;;;16.40;nan;101175.53;4967341;28;20039;-68
2022/09/20 07:30:46;;;;;;;2.13;1.10;;;;;;;16.97;nan;101183.25;4969092;28;20054;-68
2022/09/20 07:33:18;;;;;;;5.32;1.80;;;;;;;17.23;nan;101182.88;4968175;28;20085;-69
2022/09/20 07:35:43;;;;;;;4.95;1.83;;;;;;;17.29;nan;101173.31;4969467;28;20140;-69
2022/09/20 07:38:09;;;;;;;3.67;1.42;;;;;;;17.29;nan;101187.53;4967022;28;20126;-68
2022/09/20 07:40:34;;;;;;;3.13;1.75;;;;;;;17.15;nan;101185.63;4967897;28;20031;-68
2022/09/20 07:43:00;;;;;;;3.42;1.50;;;;;;;17.13;nan;101184.97;4968671;28;20031;-69
2022/09/20 07:45:25;;;;;;;4.05;1.52;;;;;;;16.83;nan;101192.88;4969467;28;20403;-68
2022/09/20 07:47:52;;;;;;;5.10;1.63;;;;;;;16.40;nan;101188.88;4968690;28;20480;-68
2022/09/20 07:50:18;;;;;;;7.63;2.50;;;;;;;15.88;nan;101190.25;4968963;28;20045;-68
2022/09/20 07:52:44;;;;;;;4.25;1.90;;;;;;;15.50;nan;101187.25;4962843;28;20051;-68
2022/09/20 07:55:09;;;;;;;4.20;1.70;;;;;;;15.28;nan;101196.78;4968439;28;20511;-67
2022/09/20 07:57:37;;;;;;;4.05;1.60;;;;;;;15.08;nan;101194.41;4969343;28;20023;-67
2022/09/20 08:00:07;;;;;;;3.90;1.60;;;;;;;15.16;nan;101188.25;4964329;28;20560;-67
2022/09/20 08:02:33;;;;;;;4.30;1.90;;;;;;;15.57;nan;101192.75;4968419;28;20143;-67
2022/09/20 08:04:58;;;;;;;3.92;1.98;;;;;;;15.95;nan;101195.72;4967790;28;20054;-67
2022/09/20 08:07:23;;;;;;;5.53;1.70;;;;;;;16.55;nan;101200.50;4969040;28;20554;-67
2022/09/20 08:09:49;;;;;;;6.22;2.03;;;;;;;17.33;nan;101198.69;4970529;28;20298;-67
2022/09/20 08:12:14;;;;;;;4.70;1.90;;;;;;;17.43;nan;101204.63;4967385;28;20171;-67
2022/09/20 08:14:40;;;;;;;4.50;1.70;;;;;;;17.51;nan;101201.84;4968533;28;20035;-67
2022/09/20 08:17:05;;;;;;;3.38;1.58;;;;;;;17.83;nan;101206.13;4968808;28;20034;-68
2022/09/20 08:19:31;;;;;;;4.57;1.70;;;;;;;17.95;nan;101205.69;4967817;28;20069;-67
2022/09/20 08:21:56;;;;;;;5.95;1.58;;;;;;;18.16;nan;101205.75;4968632;28;20037;-67
2022/09/20 08:24:21;;;;;;;4.32;1.70;;;;;;;18.62;nan;101205.50;4960998;28;20035;-67
2022/09/20 08:26:47;;;;;;;3.25;1.20;;;;;;;18.99;nan;101210.88;4969107;28;20035;-68
2022/09/20 08:29:14;;;;;;;3.05;1.42;;;;;;;19.17;nan;101210.47;4963023;28;20186;-67
2022/09/20 08:31:41;;;;;;;5.85;1.83;;;;;;;19.62;nan;101216.44;4968864;28;20392;-67
2022/09/20 08:34:08;;;;;;;2.83;1.23;;;;;;;20.17;nan;101216.63;4968096;28;20332;-67
2022/09/20 08:36:35;;;;;;;4.88;1.90;;;;;;;20.51;nan;101215.72;4968743;28;20027;-68
2022/09/20 08:39:00;;;;;;;3.35;1.25;;;;;;;21.17;nan;101224.00;4962674;28;20070;-67
2022/09/20 08:41:31;;;;;;;4.73;1.90;;;;;;;21.32;nan;101221.13;4968793;28;20035;-68
2022/09/20 08:44:02;;;;;;;4.22;1.63;;;;;;;21.23;nan;101222.34;4969494;28;20640;-67
2022/09/20 08:46:34;;;;;;;5.55;1.85;;;;;;;21.29;nan;101226.09;4972006;28;20530;-68
2022/09/20 08:49:02;;;;;;;5.07;1.75;;;;;;;21.47;nan;101212.06;4970317;28;20443;-69
2022/09/20 08:51:31;;;;;;;5.22;2.20;;;;;;;21.33;nan;101214.72;4972356;28;20213;-68
2022/09/20 08:53:57;;;;;;;7.03;2.75;;;;;;;20.40;nan;101213.63;4970269;28;20042;-68
2022/09/20 08:56:27;;;;;;;4.60;2.30;;;;;;;20.50;nan;101211.41;4971959;28;20122;-67
2022/09/20 08:58:53;;;;;;;6.32;2.08;;;;;;;21.13;nan;101211.19;4969828;28;20083;-67
2022/09/20 09:01:23;;;;;;;4.78;2.10;;;;;;;21.66;nan;101216.59;4972356;28;20026;-68
2022/09/20 09:03:54;;;;;;;5.25;2.13;;;;;;;21.37;nan;101210.56;4971864;28;20097;-68
2022/09/20 09:06:23;;;;;;;4.75;2.20;;;;;;;21.70;nan;101204.38;4971414;28;20141;-67
2022/09/20 09:08:50;;;;;;;3.05;1.75;;;;;;;22.22;nan;101208.03;4972107;28;20508;-67
2022/09/20 09:11:18;;;;;;;6.00;2.17;;;;;;;21.52;nan;101207.69;4972692;28;20089;-68
2022/09/20 09:13:55;;;;;;;5.18;1.92;;;;;;;21.40;nan;101209.34;4971596;28;20408;-67
2022/09/20 09:16:24;;;;;;;4.90;2.00;;;;;;;20.16;nan;101205.03;4976892;28;20031;-68
2022/09/20 09:18:50;;;;;;;6.30;2.17;;;;;;;18.93;nan;101209.81;4971722;28;20082;-68
2022/09/20 09:21:24;;;;;;;5.35;2.30;;;;;;;18.49;nan;101201.84;4976302;28;20038;-66
2022/09/20 09:24:08;;;;;;;4.53;1.92;;;;;;;19.15;nan;101209.81;4972000;28;20121;-67
2022/09/20 09:26:38;;;;;;;6.68;2.40;;;;;;;19.28;nan;101199.19;4973587;28;20516;-67
2022/09/20 09:29:13;;;;;;;6.07;2.40;;;;;;;18.88;nan;101202.34;4971417;28;20093;-67
2022/09/20 09:31:38;;;;;;;4.53;1.90;;;;;;;18.76;nan;101205.66;4971531;28;20385;-66
2022/09/20 09:34:04;;;;;;;3.90;1.80;;;;;;;18.68;nan;101209.28;4970728;28;20037;-67
2022/09/20 09:36:30;;;;;;;4.22;1.92;;;;;;;18.46;nan;101205.72;4972186;28;20035;-66
2022/09/20 09:39:37;;;;;;;7.35;2.75;;;;;;;18.09;nan;101202.16;4971190;28;20034;-66
2022/09/20 09:42:24;;;;;;;5.80;2.22;;;;;;;17.51;nan;101201.03;4909814;29;20390;-67
2022/09/20 09:44:50;;;;;;;4.05;2.03;;;;;;;17.35;nan;101196.66;4911404;29;20209;-67
2022/09/20 09:47:30;;;;;;;8.77;2.58;;;;;;;16.99;nan;101210.63;4947988;28;20038;-67
2022/09/20 09:49:58;;;;;;;5.78;1.90;;;;;;;16.90;nan;101203.66;4971315;28;20562;-68
2022/09/20 09:52:26;;;;;;;4.50;2.10;;;;;;;17.25;nan;101204.91;4972594;28;20312;-67
2022/09/20 09:54:58;;;;;;;7.07;2.40;;;;;;;17.73;nan;101199.31;4971328;28;20046;-67
2022/09/20 09:57:35;;;;;;;5.07;2.33;;;;;;;17.51;nan;101201.03;4974402;28;20118;-66
2022/09/20 10:00:09;;;;;;;6.90;2.20;;;;;;;17.30;nan;101191.84;4966486;28;20094;-66
2022/09/20 10:02:54;;;;;;;4.18;1.90;;;;;;;17.28;nan;101191.22;4973614;28;20031;-66
2022/09/20 10:05:52;;;;;;;5.43;2.00;;;;;;;17.02;nan;101193.41;4972866;28;20399;-67
2022/09/20 10:08:34;;;;;;;4.80;1.90;;;;;;;17.13;nan;101193.81;4961576;28;20062;-66
2022/09/20 10:11:22;;;;;;;4.93;1.95;;;;;;;17.23;nan;101196.25;4969017;28;20042;-66
2022/09/20 10:14:12;;;;;;;4.82;1.88;;;;;;;17.55;nan;101194.31;4972094;28;20439;-66
2022/09/20 10:17:14;;;;;;;5.68;1.80;;;;;;;17.78;nan;101178.19;4968942;28;20078;-66
2022/09/20 10:20:10;;;;;;;5.35;1.73;;;;;;;17.60;nan;101187.41;4965842;28;20034;-67
2022/09/20 10:22:47;;;;;;;4.70;1.90;;;;;;;17.82;nan;101177.69;4969720;28;20037;-67
2022/09/20 10:25:26;;;;;;;6.32;1.70;;;;;;;19.62;nan;101181.56;4970710;28;20456;-66
2022/09/20 10:28:19;;;;;;;3.78;1.20;;;;;;;22.14;nan;101172.38;4964906;28;20039;-67
2022/09/20 10:30:53;;;;;;;3.88;1.30;;;;;;;24.02;nan;101177.13;4970308;28;20054;-67
2022/09/20 10:33:50;;;;;;;3.63;1.27;;;;;;;25.40;nan;101178.13;4968539;28;20518;-67
2022/09/20 10:36:46;;;;;;;5.20;1.40;;;;;;;26.08;nan;101186.75;4969992;28;20393;-67
2022/09/20 10:39:24;;;;;;;5.80;1.58;;;;;;;25.99;nan;101172.72;4969962;28;20031;-67
2022/09/20 10:45:06;;;;;;;4.22;1.40;;;;;;;25.03;nan;101182.91;4968624;28;20125;-67
2022/09/20 10:47:40;;;;;;;4.85;1.55;;;;;;;25.00;nan;101177.94;4968959;28;20470;-67
2022/09/20 10:50:40;;;;;;;2.78;1.20;;;;;;;24.54;nan;101177.56;4968815;28;20033;-67
2022/09/20 10:53:30;;;;;;;3.38;1.20;;;;;;;26.50;nan;101172.91;4968471;28;20512;-67
2022/09/20 10:56:12;;;;;;;4.75;1.40;;;;;;;27.03;nan;101170.91;4962496;28;20593;-67
2022/09/20 10:58:50;;;;;;;;;;;;;;;26.73;nan;101174.75;4961731;28;20034;-68
2022/09/20 11:01:53;;;;;;;2.30;1.10;;;;;;;26.56;nan;101163.03;4964054;28;19914;-67
2022/09/20 11:04:39;;;;;;;4.32;1.27;;;;;;;26.44;nan;101172.00;4957647;28;20042;-67
2022/09/20 11:07:20;;;;;;;4.30;1.20;;;;;;;26.51;nan;101173.78;4967910;28;20439;-68
2022/09/20 11:10:03;;;;;;;5.47;1.40;;;;;;;25.85;nan;101190.28;4973502;28;20097;-67
2022/09/20 11:12:41;;;;;;;3.92;1.00;;;;;;;23.80;nan;101182.13;4968602;28;20137;-67
2022/09/20 11:15:28;;;;;;;2.33;1.08;;;;;;;21.97;nan;101186.31;4968867;28;20158;-67
2022/09/20 11:18:11;;;;;;;2.88;0.90;;;;;;;22.00;nan;101185.06;4966628;28;20436;-67
2022/09/20 11:20:49;;;;;;;2.70;1.17;;;;;;;21.15;nan;101190.28;4969661;28;20038;-67
2022/09/20 11:23:24;;;;;;;2.40;1.00;;;;;;;19.68;nan;101184.28;4969007;28;20074;-67
2022/09/20 11:25:54;;;;;;;2.53;0.95;;;;;;;18.82;nan;101181.66;4968816;28;20042;-68
2022/09/20 11:28:24;;;;;;;1.90;0.98;;;;;;;18.54;nan;101181.50;4967109;28;20031;-66
2022/09/20 11:31:14;;;;;;;2.30;1.00;;;;;;;18.44;nan;101179.13;4969427;28;20062;-67
2022/09/20 11:33:45;;;;;;;2.15;0.70;;;;;;;18.08;nan;101188.97;4967464;28;20043;-67
2022/09/20 11:36:22;;;;;;;;;;;;;;;17.99;nan;101186.34;4969408;28;20038;-67
2022/09/20 11:38:53;;;;;;;1.65;0.90;;;;;;;17.95;nan;101182.41;4968316;28;19917;-67
2022/09/20 11:41:29;;;;;;;2.75;1.00;;;;;;;18.13;nan;101189.22;4969353;28;20034;-66
2022/09/20 11:43:58;;;;;;;2.35;1.00;;;;;;;18.51;nan;101181.06;4966772;28;20035;-69
2022/09/20 11:46:28;;;;;;;1.60;0.90;;;;;;;18.64;nan;101182.06;4969340;28;20055;-68
2022/09/20 11:49:01;;;;;;;2.00;0.90;;;;;;;18.60;nan;101178.09;4961609;28;20035;-69
2022/09/20 11:51:38;;;;;;;2.05;0.70;;;;;;;18.78;nan;101175.03;4969349;28;20118;-69
2022/09/20 11:54:21;;;;;;;2.08;0.90;;;;;;;18.41;nan;101182.19;4963489;28;20134;-68
2022/09/20 11:56:56;;;;;;;3.95;1.10;;;;;;;18.16;nan;101179.00;4968852;28;20038;-68
2022/09/20 11:59:27;;;;;;;3.50;1.10;;;;;;;17.99;nan;101182.84;4967199;28;20065;-68
2022/09/20 12:01:55;;;;;;;2.92;0.98;;;;;;;17.77;nan;101184.56;4968640;28;20030;-69
2022/09/20 12:04:25;;;;;;;2.17;1.00;;;;;;;17.57;nan;101181.59;4965591;28;20043;-68
2022/09/20 12:07:14;;;;;;;2.50;0.80;;;;;;;17.62;nan;101184.56;4964718;28;20512;-69
2022/09/20 12:09:42;;;;;;;2.42;1.00;;;;;;;17.63;nan;101187.03;4965133;28;20046;-69
2022/09/20 12:12:32;;;;;;;2.75;0.95;;;;;;;17.68;nan;101185.66;4965145;28;20031;-69
2022/09/20 12:15:00;;;;;;;2.13;0.90;;;;;;;18.09;nan;101179.91;4967426;28;20130;-69
2022/09/20 12:17:44;;;;;;;2.25;0.90;;;;;;;18.40;nan;101179.69;4969387;28;20563;-69
2022/09/20 12:20:31;;;;;;;2.08;0.90;;;;;;;18.71;nan;101179.47;4972217;28;20097;-69
2022/09/20 12:23:34;;;;;;;3.28;1.00;;;;;;;18.80;nan;101175.66;4972326;28;20073;-69
2022/09/20 12:26:02;;;;;;;4.10;1.08;;;;;;;18.94;nan;101173.13;4975205;28;20053;-69
2022/09/20 12:28:46;;;;;;;2.97;0.90;;;;;;;19.08;nan;101174.91;4970699;28;20137;-69
2022/09/20 12:31:18;;;;;;;3.25;0.95;;;;;;;19.23;nan;101170.28;4979947;28;20065;-69
2022/09/20 12:34:02;;;;;;;2.13;0.93;;;;;;;19.27;nan;101178.78;4972140;28;20101;-68
2022/09/20 12:36:34;;;;;;;2.75;1.00;;;;;;;19.19;nan;101171.72;4972882;28;20042;-68
2022/09/20 12:39:12;;;;;;;3.08;1.10;;;;;;;18.86;nan;101176.75;4970973;28;20035;-68
2022/09/20 12:42:01;;;;;;;2.10;0.98;;;;;;;18.84;nan;101168.91;4971126;28;20408;-69
2022/09/20 12:44:37;;;;;;;3.83;1.10;;;;;;;18.74;nan;101167.53;4963639;28;20053;-69